Details From LOWI - Innsbruck Kranebitten
To GCGM - La Gomera
Flight Number -
Tags Generated
Created
Modified
Stats Distance 1,765 nm / 3,269 km
Max Altitude 0 ft / 0 m
Waypoints 8
Social Downloads 0
Likes 0
Share VATSIM

Download

Looking for another format? Having issues loading an existing format? Contact us
Advertisement - Login to hide

Notes

Generated

Route

LOWI ADISO MORIL CCH HIJ OSLAD LGM GCGM

ID Type Via Altitude Latitude Longitude Leg Dist Tot Dist Heading (true) Name
O LOWI APT - 0 ft / 0 m 47.25883˚ 11.33091˚ - 0 nm - -
ADISO FIX - 0 ft / 0 m 45.55917˚ 7.29333˚ 195 nm 195 nm 240° / 237° -
MORIL FIX - 0 ft / 0 m 43.06583˚ 2.35028˚ 259 nm 455 nm 237° / 233° -
CCH NDB - 0 ft / 0 m 40.90243˚ -1.29831˚ 208 nm 663 nm 233° / 230° CALAMOCHA NDB
HIJ VOR - 0 ft / 0 m 38.50813˚ -5.09968˚ 226 nm 890 nm 232° / 229° HINOJOSA VOR-DME
OSLAD FIX - 0 ft / 0 m 35.96667˚ -8.31417˚ 216 nm 1107 nm 226° / 224° -
LGM VOR - 0 ft / 0 m 28.02874˚ -17.21487˚ 657 nm 1764 nm 226° / 221° LA GOMERA VOR-DME
O GCGM APT - 0 ft / 0 m 28.02859˚ -17.22214˚ 0 nm 1765 nm 269° / 269° -

Altitude Profile

Advertisement - Login to hide

Weather


0- 5 10 15 20 25 30 35+ Temperature / ° C

Clouds and Precipitation
Forecast for 2017-12-16 12:00 UTC. Updated 2 hours ago

Ground ~20,000 ft ~40,000 ft Winds

LOWI

Details ICAO LOWI (INN)
Name Innsbruck Kranebitten
Region Austria
Timezone Europe/Vienna (UTC+1.0)
Stats Elevation 1,906 ft / 581 m (AMSL)
Location 47.260226° 11.343967°
Runways 1
Magnetic Variation 3.020° E

METAR

LOWI 161250Z 27004KT 9999 FEW015 SCT060 BKN075 02/M03 Q1009 R08/19//95 NOSIG

Decode

TAF

TAF LOWI 161115Z 1612/1712 27007KT 9999 SCT060 BKN090 TX01/1613Z TNM01/1707Z BECMG 1613/1615 8000 -SN SCT030 BKN060 TEMPO 1615/1621 1500 SHSN VV008 TEMPO 1621/1703 3000 -SN BR VV010 TEMPO 1703/1712 1200 SHSN VV007 PROB40 TEMPO 1710/1712 30012G25KT

Decode

Departure Runways

ID Width Length Bearing (true) Bearing (mag) Surface Threshold Offset Overrun Length
08 148 ft / 45 m 6,545 ft / 1,995 m 81.02° 78.00° Asphalt 338 ft / 103 m 0 ft / 0 m
26 148 ft / 45 m 6,545 ft / 1,995 m 261.04° 258.02° Asphalt 0 ft / 0 m 0 ft / 0 m

GCGM

Details ICAO GCGM (GMZ)
Name La Gomera
Region Canary Islands
Timezone Atlantic/Canary (UTC+0.0)
Stats Elevation 715 ft / 218 m (AMSL)
Location 28.029627° -17.214603°
Runways 1
Magnetic Variation 5.359° W

METAR

GCGM 161300Z 23008KT 190V260 9999 SCT032 21/15 Q1024 RMK R09/VRB06KT ARP/23007KT 160V290

Decode

TAF

TAF GCGM 160800Z 1609/1709 23008KT 9999 FEW025 TX22/1614Z TN17/1706Z PROB40 TEMPO 1612/1709 4500 RA

Decode

Destination Runways

ID Width Length Bearing (true) Bearing (mag) Surface Threshold Offset Overrun Length
09 98 ft / 30 m 4,914 ft / 1,498 m 81.17° 86.53° Asphalt 0 ft / 0 m 0 ft / 0 m
27 98 ft / 30 m 4,914 ft / 1,498 m 261.18° 266.54° Asphalt 0 ft / 0 m 0 ft / 0 m